Terminal Aerodrome Forecast
Issued by NWS State College, PA

Home | Current Version | Previous Version | Text Only | Print | Product List | Glossary On
Versions: 1 2 3 4 5 6 7 8 9 10 11 12 13 14 15 16 17 18 19 20 21 22 23 24 25 26 27 28 29 30
000
FTUS41 KCTP 250308 AAA
TAFIPT
TAF AMD
KIPT 250308Z 2503/2524 09012G18KT P6SM OVC040
     FM250600 14010G20KT 6SM -RA OVC025
     FM250800 09013G21KT 6SM -RA OVC015
     FM251000 10014G21KT 6SM -RA OVC007
     FM251600 13008KT 6SM -SHRA BR OVC015=

USA.gov is the U.S. government's official web portal to all federal, state and local government web resources and services.